Time;durP1;ratioP1;P1;durP2;ratioP2;P2;SDS_P1;SDS_P2;PMS_P1;PMS_P2;Temp;Humidity;BMP_temperature;BMP_pressure;BME280_temperature;BME280_humidity;BME280_pressure;Samples;Min_cycle;Max_cycle;Signal;HPM_P1;HPM_P2
2022/12/24 04:01:47;;;;;;;0.20;0.20;;;12.70;51.60;;;;;;5379494;22;45888;-64
2022/12/24 04:04:13;;;;;;;0.20;0.20;;;12.70;51.60;;;;;;4990762;28;46684;-59
2022/12/24 04:06:39;;;;;;;0.28;0.28;;;12.70;51.60;;;;;;5011022;28;45444;-59
2022/12/24 04:09:04;;;;;;;0.63;0.30;;;12.70;51.60;;;;;;5010518;28;47236;-57
2022/12/24 04:11:30;;;;;;;0.32;0.30;;;12.70;51.60;;;;;;5010524;28;45580;-64
2022/12/24 04:13:56;;;;;;;0.20;0.20;;;12.70;51.60;;;;;;5008962;28;46335;-50
2022/12/24 04:16:22;;;;;;;0.35;0.22;;;12.70;51.60;;;;;;5005566;28;45490;-63
2022/12/24 04:18:47;;;;;;;0.50;0.20;;;12.70;51.60;;;;;;5003967;28;45119;-63
2022/12/24 04:21:13;;;;;;;0.10;0.10;;;12.70;51.60;;;;;;4991204;28;45238;-56
2022/12/24 04:23:39;;;;;;;0.30;0.20;;;12.70;51.60;;;;;;4985798;28;46697;-60
2022/12/24 04:26:06;;;;;;;0.32;0.20;;;12.70;51.60;;;;;;5003169;28;45294;-64
2022/12/24 04:28:31;;;;;;;0.38;0.30;;;12.70;51.70;;;;;;5008638;28;45000;-55
2022/12/24 04:31:01;;;;;;;0.10;0.10;;;12.70;51.60;;;;;;5003373;28;45445;-57
2022/12/24 04:33:27;;;;;;;0.15;0.15;;;12.70;51.70;;;;;;4985260;28;46141;-61
2022/12/24 04:35:52;;;;;;;0.43;0.32;;;12.70;51.70;;;;;;5005640;28;45222;-56
2022/12/24 04:38:18;;;;;;;0.20;0.20;;;12.70;51.70;;;;;;5011645;28;45652;-55
2022/12/24 04:40:43;;;;;;;0.30;0.30;;;12.70;51.60;;;;;;5015200;28;45938;-54
2022/12/24 04:43:09;;;;;;;0.20;0.20;;;12.70;51.60;;;;;;5012864;28;45862;-60
2022/12/24 04:45:34;;;;;;;0.30;0.20;;;12.70;51.70;;;;;;5013432;28;45375;-56
2022/12/24 04:48:00;;;;;;;0.20;0.20;;;12.70;51.60;;;;;;5007950;28;44959;-66
2022/12/24 04:50:25;;;;;;;0.30;0.30;;;12.70;51.70;;;;;;4995082;28;45375;-61
2022/12/24 04:52:51;;;;;;;0.10;0.10;;;12.70;51.70;;;;;;5010430;28;46010;-58
2022/12/24 04:55:16;;;;;;;0.20;0.20;;;12.70;51.70;;;;;;5013916;28;44997;-62
2022/12/24 04:57:42;;;;;;;0.30;0.30;;;12.70;51.70;;;;;;4995352;28;45474;-57
2022/12/24 05:00:08;;;;;;;0.38;0.22;;;12.70;51.70;;;;;;5009753;28;45932;-57
2022/12/24 05:02:34;;;;;;;0.32;0.25;;;12.70;51.70;;;;;;5010564;28;46100;-58
2022/12/24 05:04:59;;;;;;;0.17;0.17;;;12.70;51.70;;;;;;5009096;28;45353;-58
2022/12/24 05:07:25;;;;;;;0.40;0.20;;;12.70;51.60;;;;;;5015347;28;45461;-57
2022/12/24 05:09:50;;;;;;;0.20;0.20;;;12.70;51.60;;;;;;5021739;28;45344;-64
2022/12/24 05:12:16;;;;;;;0.30;0.30;;;12.70;51.60;;;;;;5019492;28;46351;-53
2022/12/24 05:14:41;;;;;;;0.88;0.30;;;12.70;51.70;;;;;;5021669;28;45310;-55
2022/12/24 05:17:07;;;;;;;0.30;0.30;;;12.70;51.70;;;;;;5016505;28;45332;-61
2022/12/24 05:19:33;;;;;;;0.25;0.20;;;12.70;51.70;;;;;;5022274;28;45209;-53
2022/12/24 05:27:27;;;;;;;0.30;0.30;;;12.70;51.70;;;;;;5013042;28;45426;-57
2022/12/24 05:29:53;;;;;;;0.45;0.20;;;12.70;51.70;;;;;;5000961;28;45374;-54
2022/12/24 05:32:18;;;;;;;0.30;0.30;;;12.70;51.70;;;;;;5016198;28;45875;-56
2022/12/24 05:34:44;;;;;;;0.30;0.20;;;12.70;51.70;;;;;;5020782;28;45172;-67
2022/12/24 05:37:09;;;;;;;0.17;0.17;;;12.70;52.30;;;;;;5010538;28;45320;-54
2022/12/24 05:39:35;;;;;;;0.93;0.30;;;12.80;51.70;;;;;;5011401;28;45435;-57
2022/12/24 05:42:00;;;;;;;0.22;0.20;;;12.80;51.60;;;;;;5008577;28;45900;-65
2022/12/24 05:44:26;;;;;;;0.30;0.20;;;12.70;51.60;;;;;;5014844;28;45224;-57
2022/12/24 05:46:52;;;;;;;0.15;0.15;;;12.70;51.60;;;;;;5021322;28;45156;-57
2022/12/24 05:49:17;;;;;;;0.80;0.30;;;12.70;51.70;;;;;;5015385;28;45596;-56
2022/12/24 05:51:43;;;;;;;0.20;0.20;;;12.70;51.70;;;;;;5012009;28;45909;-59
2022/12/24 05:54:08;;;;;;;0.20;0.20;;;12.80;51.70;;;;;;5016229;28;45459;-63
2022/12/24 05:56:34;;;;;;;0.20;0.20;;;12.70;51.70;;;;;;5010335;28;45184;-59
2022/12/24 05:58:59;;;;;;;0.28;0.28;;;12.70;51.70;;;;;;4998563;28;45751;-67
2022/12/24 06:01:25;;;;;;;0.32;0.25;;;12.70;51.70;;;;;;5008934;28;46344;-58
2022/12/24 06:03:51;;;;;;;0.10;0.10;;;12.80;51.70;;;;;;5007656;28;44876;-54
2022/12/24 06:06:19;;;;;;;0.28;0.20;;;12.70;51.60;;;;;;5003446;28;45600;-59
2022/12/24 06:08:45;;;;;;;0.35;0.30;;;12.70;51.60;;;;;;5010725;28;45030;-59
2022/12/24 06:11:12;;;;;;;0.30;0.28;;;12.70;51.70;;;;;;5009017;28;45667;-60
2022/12/24 06:13:38;;;;;;;0.20;0.20;;;12.80;51.70;;;;;;5016374;28;45231;-62
2022/12/24 06:16:05;;;;;;;0.20;0.20;;;12.70;51.70;;;;;;5009312;28;45452;-61
2022/12/24 06:18:31;;;;;;;0.20;0.20;;;12.70;51.60;;;;;;5010891;28;45201;-58
2022/12/24 06:20:57;;;;;;;0.30;0.30;;;12.70;51.60;;;;;;5012018;28;46007;-55
2022/12/24 06:23:22;;;;;;;0.15;0.15;;;12.80;51.70;;;;;;4994943;28;45679;-60
2022/12/24 06:25:48;;;;;;;0.60;0.20;;;12.80;51.70;;;;;;5003711;28;45089;-62
2022/12/24 06:28:14;;;;;;;0.22;0.20;;;12.70;51.70;;;;;;5011891;28;45302;-60
2022/12/24 06:30:40;;;;;;;0.20;0.20;;;12.80;51.70;;;;;;5014118;28;46109;-58
2022/12/24 06:33:05;;;;;;;0.20;0.20;;;12.80;51.70;;;;;;5014932;28;44657;-61
2022/12/24 06:35:32;;;;;;;0.10;0.10;;;12.70;51.70;;;;;;5008615;28;45789;-56
2022/12/24 06:37:58;;;;;;;0.28;0.20;;;12.80;51.70;;;;;;4989767;28;45532;-57
2022/12/24 06:40:25;;;;;;;0.25;0.25;;;12.80;51.70;;;;;;5011192;28;46195;-62
2022/12/24 06:42:50;;;;;;;0.30;0.20;;;12.80;51.80;;;;;;5005313;28;44678;-57
2022/12/24 06:45:16;;;;;;;0.43;0.30;;;12.70;51.70;;;;;;5005013;28;45965;-52
2022/12/24 06:47:41;;;;;;;0.20;0.20;;;12.80;51.80;;;;;;5005394;28;45358;-58
2022/12/24 06:50:08;;;;;;;0.25;0.20;;;12.80;51.70;;;;;;5002888;28;46153;-63
2022/12/24 06:52:34;;;;;;;0.43;0.30;;;12.80;51.80;;;;;;5002388;28;45360;-59
2022/12/24 06:54:59;;;;;;;0.38;0.20;;;12.80;51.80;;;;;;4968988;28;45300;-69
2022/12/24 06:57:25;;;;;;;0.20;0.20;;;12.70;51.70;;;;;;5008054;28;45818;-53
2022/12/24 06:59:51;;;;;;;0.30;0.25;;;12.80;51.70;;;;;;5010740;28;46262;-53
2022/12/24 07:02:16;;;;;;;0.32;0.22;;;12.70;51.70;;;;;;4989330;28;45244;-57
2022/12/24 07:04:42;;;;;;;0.20;0.20;;;12.80;51.70;;;;;;5010217;28;45693;-52
2022/12/24 07:07:07;;;;;;;0.20;0.20;;;12.70;51.70;;;;;;5015833;28;45503;-54
2022/12/24 07:09:33;;;;;;;0.75;0.30;;;12.80;51.80;;;;;;5011470;28;45772;-63
2022/12/24 07:11:59;;;;;;;0.10;0.10;;;12.70;51.70;;;;;;4996524;28;45436;-61
2022/12/24 07:14:24;;;;;;;0.20;0.17;;;12.70;51.70;;;;;;5004782;28;45236;-60
2022/12/24 07:16:51;;;;;;;0.20;0.20;;;12.70;51.80;;;;;;4995756;28;45491;-50
2022/12/24 07:19:17;;;;;;;0.20;0.20;;;12.80;51.80;;;;;;5008383;28;46395;-55
2022/12/24 07:21:43;;;;;;;0.30;0.30;;;12.80;52.40;;;;;;5007171;28;44640;-57
2022/12/24 07:24:08;;;;;;;0.20;0.10;;;12.70;51.70;;;;;;5013264;28;45309;-57
2022/12/24 07:26:34;;;;;;;0.68;0.20;;;12.70;51.80;;;;;;5012051;28;45213;-55
2022/12/24 07:28:59;;;;;;;0.20;0.20;;;12.80;51.80;;;;;;5010118;28;46282;-60
2022/12/24 07:31:25;;;;;;;0.63;0.30;;;12.80;51.70;;;;;;5007948;28;45339;-57
2022/12/24 07:33:51;;;;;;;0.22;0.20;;;12.80;51.80;;;;;;5020309;28;45528;-60
2022/12/24 07:36:18;;;;;;;0.30;0.30;;;12.80;51.80;;;;;;5013970;28;45234;-60
2022/12/24 07:38:44;;;;;;;0.40;0.28;;;12.80;51.80;;;;;;5010586;28;45919;-64
2022/12/24 07:41:09;;;;;;;0.13;0.13;;;12.80;51.80;;;;;;5004741;28;44747;-57
2022/12/24 07:43:35;;;;;;;0.20;0.20;;;12.80;51.80;;;;;;4974860;28;45505;-63
2022/12/24 07:46:01;;;;;;;0.40;0.30;;;12.80;51.80;;;;;;5005592;28;45469;-67
2022/12/24 07:48:30;;;;;;;0.30;0.30;;;12.80;51.80;;;;;;5003873;28;45332;-63
2022/12/24 07:50:56;;;;;;;0.43;0.28;;;12.80;51.80;;;;;;4985185;28;45347;-57
2022/12/24 07:53:21;;;;;;;0.20;0.20;;;12.80;51.70;;;;;;5004023;28;46892;-57
2022/12/24 07:55:47;;;;;;;0.13;0.13;;;12.80;51.70;;;;;;5002427;28;45351;-58
2022/12/24 07:58:12;;;;;;;0.32;0.30;;;12.80;51.80;;;;;;5005266;28;46049;-56
2022/12/24 08:00:38;;;;;;;0.30;0.30;;;12.80;51.80;;;;;;5002997;28;45436;-60
2022/12/24 08:03:04;;;;;;;0.20;0.20;;;12.80;51.80;;;;;;5006202;28;44699;-63
2022/12/24 08:05:33;;;;;;;0.20;0.20;;;12.80;51.80;;;;;;5000511;28;44915;-56
2022/12/24 08:07:59;;;;;;;0.30;0.20;;;12.80;51.80;;;;;;4989607;28;46393;-59
2022/12/24 08:10:25;;;;;;;0.85;0.20;;;12.80;51.80;;;;;;5005724;28;45276;-58
2022/12/24 08:12:50;;;;;;;0.20;0.20;;;12.80;51.80;;;;;;4994806;28;45581;-58
2022/12/24 08:15:16;;;;;;;0.15;0.15;;;12.80;51.80;;;;;;5009230;28;45568;-66
2022/12/24 08:17:41;;;;;;;0.20;0.20;;;12.80;51.80;;;;;;5011145;28;45969;-60
2022/12/24 08:20:07;;;;;;;0.25;0.20;;;12.80;51.80;;;;;;5003807;28;45344;-56
2022/12/24 08:22:33;;;;;;;0.38;0.30;;;12.80;51.80;;;;;;5005276;28;45458;-64
2022/12/24 08:24:58;;;;;;;0.40;0.30;;;12.80;51.80;;;;;;5011661;28;45275;-62
2022/12/24 08:27:24;;;;;;;0.35;0.30;;;12.80;51.80;;;;;;5011390;28;46492;-57
2022/12/24 08:29:49;;;;;;;0.20;0.10;;;12.80;51.80;;;;;;5009870;28;45362;-56
2022/12/24 08:32:15;;;;;;;0.68;0.30;;;12.80;51.80;;;;;;4991204;28;46393;-57
2022/12/24 08:34:40;;;;;;;0.38;0.22;;;12.80;51.80;;;;;;5010684;28;45558;-65
2022/12/24 08:37:06;;;;;;;0.20;0.20;;;12.90;51.80;;;;;;5001271;28;46016;-65
2022/12/24 08:39:32;;;;;;;0.20;0.20;;;12.80;51.80;;;;;;5014620;28;45563;-61
2022/12/24 08:41:57;;;;;;;0.30;0.20;;;12.80;51.80;;;;;;4993660;28;45155;-54
2022/12/24 08:44:23;;;;;;;0.30;0.28;;;12.80;51.80;;;;;;4998945;28;45505;-58
2022/12/24 08:46:48;;;;;;;0.30;0.30;;;12.80;51.80;;;;;;5006037;28;48144;-60
2022/12/24 08:49:14;;;;;;;0.90;0.30;;;12.90;51.80;;;;;;5004948;28;45544;-54
2022/12/24 08:51:40;;;;;;;0.20;0.20;;;12.80;51.80;;;;;;5007179;28;45340;-59
2022/12/24 08:54:05;;;;;;;0.35;0.20;;;12.90;51.90;;;;;;5010348;28;45297;-58
2022/12/24 08:56:33;;;;;;;0.90;0.20;;;12.90;51.90;;;;;;5006011;28;46031;-61
2022/12/24 08:58:59;;;;;;;0.38;0.10;;;12.80;51.80;;;;;;5013578;28;45226;-56
2022/12/24 09:01:24;;;;;;;0.20;0.20;;;12.80;51.80;;;;;;5006261;28;44979;-54
2022/12/24 09:03:50;;;;;;;0.22;0.20;;;12.80;51.80;;;;;;5009431;28;44696;-55
2022/12/24 09:06:16;;;;;;;0.17;0.17;;;12.90;51.80;;;;;;5008165;28;46167;-64
2022/12/24 09:08:41;;;;;;;0.70;0.40;;;12.90;51.80;;;;;;5009512;28;45318;-60
2022/12/24 09:11:09;;;;;;;0.30;0.20;;;12.90;51.80;;;;;;5009307;28;45228;-57
2022/12/24 09:13:35;;;;;;;0.30;0.20;;;12.90;51.80;;;;;;5010357;28;45508;-53
2022/12/24 09:16:00;;;;;;;0.20;0.20;;;12.90;51.80;;;;;;5012760;28;46112;-58
2022/12/24 09:18:26;;;;;;;0.20;0.20;;;12.90;51.80;;;;;;4990733;28;45582;-60
2022/12/24 09:21:00;;;;;;;0.20;0.20;;;12.90;51.80;;;;;;5009338;28;45205;-58
2022/12/24 09:23:26;;;;;;;0.22;0.10;;;12.90;51.80;;;;;;5007910;28;45437;-55
2022/12/24 09:25:51;;;;;;;0.20;0.20;;;12.90;51.80;;;;;;5008782;28;45896;-61
2022/12/24 09:28:17;;;;;;;0.30;0.22;;;12.90;52.40;;;;;;5016632;28;45052;-56
2022/12/24 09:30:43;;;;;;;0.13;0.10;;;12.90;51.80;;;;;;5014258;28;45008;-64
2022/12/24 09:33:08;;;;;;;0.10;0.10;;;12.90;51.90;;;;;;4993649;28;45479;-62
2022/12/24 09:35:37;;;;;;;0.25;0.20;;;12.90;51.90;;;;;;5014079;28;46013;-62
2022/12/24 09:38:02;;;;;;;0.25;0.25;;;12.90;51.90;;;;;;5014244;28;45357;-57
2022/12/24 09:40:38;;;;;;;0.40;0.40;;;12.90;51.90;;;;;;5006425;28;45016;-59
2022/12/24 09:43:10;;;;;;;0.35;0.20;;;12.90;51.90;;;;;;4982061;28;46189;-58
2022/12/24 09:45:37;;;;;;;0.40;0.17;;;12.90;51.90;;;;;;5000987;28;46022;-52
2022/12/24 09:48:05;;;;;;;0.55;0.35;;;12.90;51.90;;;;;;4997501;28;45079;-57
2022/12/24 09:50:58;;;;;;;0.20;0.20;;;12.90;51.90;;;;;;4981148;28;45431;-54
2022/12/24 09:53:46;;;;;;;0.38;0.30;;;12.90;51.90;;;;;;5004427;28;44931;-64
2022/12/24 09:56:21;;;;;;;0.20;0.20;;;12.90;51.90;;;;;;4995643;28;45916;-61
2022/12/24 09:58:56;;;;;;;0.30;0.30;;;12.90;51.90;;;;;;5006672;28;45180;-58
2022/12/24 10:01:22;;;;;;;0.20;0.20;;;12.90;51.90;;;;;;4992863;28;45515;-53
2022/12/24 10:03:47;;;;;;;0.17;0.17;;;12.90;51.90;;;;;;4996304;28;45593;-59
2022/12/24 10:06:15;;;;;;;0.20;0.20;;;12.90;51.90;;;;;;5012208;28;45259;-53
2022/12/24 10:08:50;;;;;;;0.28;0.17;;;12.90;51.90;;;;;;4994327;28;45211;-62
2022/12/24 10:11:35;;;;;;;0.20;0.20;;;12.90;51.90;;;;;;4995733;28;44909;-54
2022/12/24 10:14:25;;;;;;;0.30;0.25;;;12.90;51.90;;;;;;5013786;28;45419;-64
2022/12/24 10:17:09;;;;;;;0.20;0.20;;;12.90;51.90;;;;;;5012099;28;46897;-59
2022/12/24 10:19:57;;;;;;;0.32;0.20;;;12.90;51.90;;;;;;5012936;28;45638;-57
2022/12/24 10:22:41;;;;;;;0.90;0.25;;;12.90;51.90;;;;;;5006857;28;45129;-58
2022/12/24 10:25:40;;;;;;;0.20;0.10;;;12.90;51.90;;;;;;4984255;28;45263;-58
2022/12/24 10:28:12;;;;;;;0.45;0.40;;;13.00;51.90;;;;;;5022411;28;46869;-61
2022/12/24 10:30:37;;;;;;;0.20;0.20;;;13.00;51.80;;;;;;4995753;28;45222;-58
2022/12/24 10:33:11;;;;;;;0.32;0.28;;;13.00;51.80;;;;;;4999100;28;45152;-60
2022/12/24 10:35:39;;;;;;;;;;;13.00;51.70;;;;;;4981962;28;45436;-55
2022/12/24 10:38:04;;;;;;;0.30;0.20;;;13.00;51.80;;;;;;5014919;28;46095;-64
2022/12/24 10:40:41;;;;;;;0.50;0.20;;;13.00;51.70;;;;;;4999671;28;44980;-58
2022/12/24 10:43:20;;;;;;;0.68;0.20;;;13.00;51.60;;;;;;5011700;28;45164;-63
2022/12/24 10:45:48;;;;;;;1.48;0.30;;;13.00;51.60;;;;;;5021586;28;45277;-59
2022/12/24 10:48:26;;;;;;;0.20;0.10;;;13.10;51.50;;;;;;4999550;28;46245;-57
2022/12/24 10:51:18;;;;;;;0.20;0.20;;;13.10;51.50;;;;;;4982688;28;45316;-56
2022/12/24 10:54:06;;;;;;;0.20;0.20;;;13.10;51.60;;;;;;4998976;28;45603;-54
2022/12/24 10:56:36;;;;;;;0.20;0.20;;;13.10;51.60;;;;;;5017463;28;44953;-61
2022/12/24 10:59:02;;;;;;;0.55;0.30;;;13.10;51.60;;;;;;4978647;28;46802;-59
2022/12/24 11:01:44;;;;;;;0.30;0.30;;;13.10;51.60;;;;;;5008227;28;45517;-55
2022/12/24 11:04:22;;;;;;;0.30;0.30;;;13.10;51.60;;;;;;4981434;28;45354;-54
2022/12/24 11:06:55;;;;;;;0.20;0.20;;;13.10;52.10;;;;;;5016369;28;44798;-59
2022/12/24 11:09:28;;;;;;;0.30;0.30;;;13.10;51.50;;;;;;5006561;28;47025;-63
2022/12/24 11:11:55;;;;;;;0.30;0.30;;;13.10;51.60;;;;;;5003597;28;45457;-57
2022/12/24 11:14:21;;;;;;;0.60;0.30;;;13.10;51.60;;;;;;4994814;28;45463;-60
2022/12/24 11:16:53;;;;;;;0.30;0.10;;;13.10;51.50;;;;;;5020464;28;45368;-62
2022/12/24 11:19:28;;;;;;;0.40;0.30;;;13.10;51.50;;;;;;5011532;28;47073;-53
2022/12/24 11:22:07;;;;;;;0.30;0.20;;;13.10;51.50;;;;;;4983492;28;45870;-58
2022/12/24 11:24:34;;;;;;;0.30;0.30;;;13.20;51.60;;;;;;4989465;28;45470;-52
2022/12/24 11:27:48;;;;;;;0.30;0.20;;;13.10;51.50;;;;;;4996933;28;45172;-57
2022/12/24 11:30:13;;;;;;;0.25;0.20;;;13.20;51.60;;;;;;4932861;28;46981;-55
2022/12/24 11:32:40;;;;;;;0.45;0.22;;;13.20;51.90;;;;;;4928887;28;44715;-58
2022/12/24 11:35:07;;;;;;;0.50;0.40;;;13.10;51.60;;;;;;4966781;28;45527;-59
2022/12/24 11:37:32;;;;;;;0.20;0.20;;;13.20;51.60;;;;;;4994114;28;45377;-61
2022/12/24 11:40:00;;;;;;;0.20;0.20;;;13.20;51.60;;;;;;4993560;28;46880;-59
2022/12/24 11:42:39;;;;;;;0.20;0.20;;;13.10;51.60;;;;;;4991750;28;45280;-65
2022/12/24 11:45:13;;;;;;;0.45;0.30;;;13.20;51.70;;;;;;5016008;28;45192;-56
2022/12/24 11:47:39;;;;;;;1.20;0.30;;;13.20;51.60;;;;;;5015745;28;45175;-58
2022/12/24 11:50:24;;;;;;;0.20;0.20;;;13.10;52.20;;;;;;5000841;28;46166;-60
2022/12/24 11:53:01;;;;;;;0.40;0.30;;;13.10;51.70;;;;;;5012390;28;44594;-51
2022/12/24 11:55:35;;;;;;;0.38;0.20;;;13.20;51.60;;;;;;4996760;28;44782;-73
2022/12/24 11:58:29;;;;;;;0.68;0.28;;;13.20;51.70;;;;;;5008609;28;45542;-54
2022/12/24 12:01:19;;;;;;;0.20;0.20;;;13.20;51.80;;;;;;4971577;28;46054;-54
2022/12/24 12:03:47;;;;;;;0.22;0.20;;;13.20;51.60;;;;;;4990051;28;46076;-54
2022/12/24 12:06:34;;;;;;;0.10;0.10;;;13.20;51.60;;;;;;4998408;28;45582;-60
2022/12/24 12:09:11;;;;;;;0.20;0.20;;;13.20;51.70;;;;;;4998939;28;45269;-59
2022/12/24 12:11:37;;;;;;;0.40;0.20;;;13.20;51.60;;;;;;4986979;28;46322;-64
2022/12/24 12:14:03;;;;;;;0.20;0.10;;;13.20;51.60;;;;;;4975774;28;45315;-58
2022/12/24 12:16:59;;;;;;;1.33;0.30;;;13.20;51.60;;;;;;4984326;28;45298;-62
2022/12/24 12:19:25;;;;;;;0.55;0.30;;;13.20;51.60;;;;;;4996178;28;45306;-57
2022/12/24 12:21:50;;;;;;;0.50;0.38;;;13.20;51.60;;;;;;4976050;28;45898;-63
2022/12/24 12:24:19;;;;;;;0.57;0.35;;;13.20;51.60;;;;;;4989494;28;45537;-55
2022/12/24 12:26:45;;;;;;;0.40;0.30;;;13.20;51.60;;;;;;4978694;28;45186;-56
2022/12/24 12:29:26;;;;;;;0.25;0.25;;;13.20;51.60;;;;;;5007902;28;44848;-57
2022/12/24 12:31:58;;;;;;;0.20;0.20;;;13.30;51.70;;;;;;4995116;28;46916;-55
2022/12/24 12:34:30;;;;;;;0.10;0.10;;;13.20;51.60;;;;;;4991785;28;46272;-54
2022/12/24 12:36:59;;;;;;;1.05;0.20;;;13.20;51.50;;;;;;5007385;28;45607;-55
2022/12/24 12:39:25;;;;;;;0.20;0.20;;;13.20;51.50;;;;;;4995914;28;45403;-59
2022/12/24 12:42:14;;;;;;;0.68;0.38;;;13.20;51.50;;;;;;4991472;28;45530;-52
2022/12/24 12:45:00;;;;;;;0.43;0.28;;;13.30;51.70;;;;;;4993531;28;44754;-58
2022/12/24 12:47:41;;;;;;;0.20;0.15;;;13.30;51.70;;;;;;5008987;28;45449;-56
2022/12/24 12:50:41;;;;;;;0.43;0.20;;;13.20;51.50;;;;;;5009011;28;45685;-54
2022/12/24 12:53:26;;;;;;;0.43;0.25;;;13.30;51.70;;;;;;4993484;28;46566;-55
2022/12/24 12:56:10;;;;;;;0.80;0.30;;;13.30;51.60;;;;;;5007952;28;45110;-59
2022/12/24 12:58:58;;;;;;;0.50;0.35;;;13.30;51.60;;;;;;5014192;28;44757;-58
2022/12/24 13:01:43;;;;;;;0.70;0.20;;;13.30;51.60;;;;;;4980795;28;46089;-55
2022/12/24 13:04:24;;;;;;;0.47;0.30;;;13.30;51.60;;;;;;4997925;28;47188;-58
2022/12/24 13:07:11;;;;;;;0.30;0.30;;;13.30;51.60;;;;;;5015260;28;45140;-57
2022/12/24 13:09:50;;;;;;;0.55;0.43;;;13.30;51.50;;;;;;5015465;28;45120;-60
2022/12/24 13:12:55;;;;;;;0.77;0.40;;;13.30;51.50;;;;;;4992402;28;45768;-55
2022/12/24 13:15:47;;;;;;;0.20;0.20;;;13.30;51.60;;;;;;5000855;28;46010;-60
2022/12/24 13:18:25;;;;;;;1.00;0.30;;;13.30;51.60;;;;;;4992350;28;45323;-60
2022/12/24 13:20:50;;;;;;;0.30;0.30;;;13.30;51.70;;;;;;4992648;28;45135;-59
2022/12/24 13:23:23;;;;;;;0.30;0.30;;;13.30;51.60;;;;;;4996267;28;45481;-52
2022/12/24 13:25:53;;;;;;;0.35;0.20;;;13.30;51.70;;;;;;5000902;28;46014;-61
2022/12/24 13:28:19;;;;;;;0.35;0.35;;;13.30;51.80;;;;;;4994755;28;44923;-55
2022/12/24 13:30:45;;;;;;;0.45;0.30;;;13.20;51.80;;;;;;5008643;28;45202;-60
2022/12/24 13:33:11;;;;;;;1.00;0.40;;;13.20;51.80;;;;;;5017890;28;45542;-58
2022/12/24 13:35:38;;;;;;;0.38;0.20;;;13.30;51.90;;;;;;5014815;28;45225;-54
2022/12/24 13:38:28;;;;;;;0.40;0.20;;;13.30;51.90;;;;;;5014686;28;45322;-60
2022/12/24 13:40:54;;;;;;;0.10;0.10;;;13.20;52.00;;;;;;5003741;28;44738;-58
2022/12/24 13:43:20;;;;;;;1.30;0.30;;;13.30;52.00;;;;;;5019062;28;45198;-63
2022/12/24 13:45:49;;;;;;;0.40;0.20;;;13.20;51.90;;;;;;5011102;28;45180;-61
2022/12/24 13:48:35;;;;;;;0.80;0.30;;;13.30;52.00;;;;;;5009840;28;44693;-58
2022/12/24 13:51:17;;;;;;;0.50;0.30;;;13.20;51.90;;;;;;5004300;28;45403;-55
2022/12/24 13:53:43;;;;;;;0.80;0.40;;;13.30;52.00;;;;;;4997240;28;45334;-66
2022/12/24 13:56:24;;;;;;;0.35;0.30;;;13.30;52.00;;;;;;4993077;28;45858;-57
2022/12/24 13:59:09;;;;;;;0.95;0.25;;;13.30;52.00;;;;;;5000969;28;44983;-55
2022/12/24 14:01:36;;;;;;;0.30;0.20;;;13.30;52.00;;;;;;5012844;28;45791;-60
2022/12/24 14:04:02;;;;;;;1.02;0.20;;;13.30;52.00;;;;;;5001126;28;45365;-59
2022/12/24 14:06:32;;;;;;;0.60;0.30;;;13.30;52.00;;;;;;4995088;28;45885;-65
2022/12/24 14:09:10;;;;;;;0.65;0.40;;;13.30;52.00;;;;;;5014259;28;45291;-57
2022/12/24 14:11:57;;;;;;;0.60;0.28;;;13.30;52.00;;;;;;4989537;28;45444;-58
2022/12/24 14:14:30;;;;;;;0.85;0.20;;;13.30;52.00;;;;;;5015354;28;45607;-58
2022/12/24 14:16:57;;;;;;;0.20;0.20;;;13.30;52.00;;;;;;5007341;28;46058;-56
2022/12/24 14:19:39;;;;;;;0.47;0.30;;;13.30;52.00;;;;;;4982445;28;44840;-59
2022/12/24 14:22:29;;;;;;;0.35;0.30;;;13.30;52.00;;;;;;4999327;28;45376;-59
2022/12/24 14:25:02;;;;;;;0.30;0.20;;;13.30;52.00;;;;;;4995284;28;45274;-62
2022/12/24 14:27:45;;;;;;;0.52;0.17;;;13.30;51.90;;;;;;5012577;28;45939;-60
2022/12/24 14:30:19;;;;;;;0.40;0.30;;;13.30;52.00;;;;;;5009494;28;44731;-58
2022/12/24 14:32:44;;;;;;;0.40;0.20;;;13.30;52.00;;;;;;4990366;28;45415;-57
2022/12/24 14:35:10;;;;;;;0.38;0.20;;;13.30;52.00;;;;;;5017730;28;45187;-65
2022/12/24 14:37:35;;;;;;;0.30;0.20;;;13.30;51.90;;;;;;4992375;28;46074;-58
2022/12/24 14:40:01;;;;;;;0.52;0.30;;;13.30;51.90;;;;;;4988311;28;45470;-52
2022/12/24 14:42:41;;;;;;;0.47;0.30;;;13.40;51.90;;;;;;5012703;28;45058;-54
2022/12/24 14:45:36;;;;;;;0.40;0.30;;;13.40;51.90;;;;;;4993269;28;45291;-57
2022/12/24 14:48:23;;;;;;;0.73;0.30;;;13.40;51.90;;;;;;5000360;28;47449;-67
2022/12/24 14:51:12;;;;;;;0.38;0.30;;;13.40;51.90;;;;;;5014213;28;45352;-64
2022/12/24 14:54:08;;;;;;;0.77;0.20;;;13.40;52.00;;;;;;4996007;28;45258;-58
2022/12/24 14:56:33;;;;;;;0.75;0.20;;;13.40;52.00;;;;;;4978159;28;45336;-55
2022/12/24 14:59:03;;;;;;;0.63;0.40;;;13.40;52.00;;;;;;4993932;28;46089;-62
2022/12/24 15:02:54;;;;;;;0.30;0.25;;;13.40;52.00;;;;;;5073086;27;45194;-69
2022/12/24 15:05:24;;;;;;;0.40;0.40;;;13.30;51.90;;;;;;5080412;27;45022;-63
2022/12/24 15:08:01;;;;;;;1.90;0.40;;;13.40;52.00;;;;;;5070024;27;44746;-55
2022/12/24 15:10:34;;;;;;;0.40;0.20;;;13.40;52.00;;;;;;5070998;27;45490;-53
2022/12/24 15:13:08;;;;;;;0.75;0.35;;;13.40;52.00;;;;;;5057125;27;45197;-57
2022/12/24 15:15:33;;;;;;;0.82;0.32;;;13.40;52.00;;;;;;5060677;27;45229;-56
2022/12/24 15:17:59;;;;;;;1.15;0.40;;;13.40;52.00;;;;;;5067557;27;44724;-62
2022/12/24 15:20:26;;;;;;;0.57;0.30;;;13.40;52.00;;;;;;5067275;27;45861;-65
2022/12/24 15:22:53;;;;;;;0.30;0.25;;;13.40;52.00;;;;;;5068234;27;46280;-54
2022/12/24 15:25:27;;;;;;;0.35;0.28;;;13.40;51.90;;;;;;5067919;27;45104;-62
2022/12/24 15:27:53;;;;;;;0.55;0.30;;;13.40;52.00;;;;;;5069693;27;46208;-54
2022/12/24 15:30:21;;;;;;;1.40;0.40;;;13.40;52.00;;;;;;5068629;27;45421;-63
2022/12/24 15:32:48;;;;;;;0.52;0.22;;;13.40;52.00;;;;;;5067126;27;46942;-57
2022/12/24 15:35:30;;;;;;;0.57;0.30;;;13.40;52.00;;;;;;5048703;28;44645;-55
2022/12/24 15:37:57;;;;;;;0.43;0.28;;;13.40;52.00;;;;;;5069829;27;45119;-59
2022/12/24 15:40:23;;;;;;;0.70;0.40;;;13.40;52.00;;;;;;5049791;28;45202;-58
2022/12/24 15:42:48;;;;;;;0.68;0.20;;;13.40;52.00;;;;;;5030326;27;45670;-52
2022/12/24 15:45:42;;;;;;;0.95;0.25;;;13.40;52.00;;;;;;5044383;28;45136;-55
2022/12/24 15:48:09;;;;;;;0.20;0.20;;;13.40;52.00;;;;;;5049912;28;45244;-63
2022/12/24 15:50:36;;;;;;;0.90;0.30;;;13.40;52.00;;;;;;5051137;28;45535;-60
2022/12/24 15:53:11;;;;;;;0.20;0.20;;;13.40;52.00;;;;;;5045764;27;47003;-60
2022/12/24 15:55:39;;;;;;;0.22;0.22;;;13.40;52.00;;;;;;5051845;28;44956;-58
2022/12/24 15:58:25;;;;;;;0.63;0.30;;;13.40;52.00;;;;;;5050592;28;45187;-54
2022/12/24 16:01:14;;;;;;;0.55;0.30;;;13.40;52.00;;;;;;5064700;27;45831;-51
2022/12/24 16:03:48;;;;;;;0.90;0.38;;;13.40;52.10;;;;;;5091176;27;46248;-61
2022/12/24 16:06:14;;;;;;;0.20;0.20;;;13.40;52.00;;;;;;5081649;27;45000;-57
2022/12/24 16:08:40;;;;;;;0.73;0.30;;;13.40;52.00;;;;;;5072644;27;45381;-56
2022/12/24 16:11:18;;;;;;;0.75;0.30;;;13.40;52.00;;;;;;5082666;27;45587;-58
2022/12/24 16:13:50;;;;;;;0.70;0.30;;;13.40;52.00;;;;;;5073053;27;47044;-56
2022/12/24 16:16:17;;;;;;;0.70;0.40;;;13.40;52.00;;;;;;5075599;27;44721;-60
2022/12/24 16:18:57;;;;;;;0.35;0.22;;;13.40;51.90;;;;;;5063642;27;45511;-56
2022/12/24 16:21:39;;;;;;;0.55;0.30;;;13.40;51.90;;;;;;5053811;28;45365;-56
2022/12/24 16:24:06;;;;;;;1.40;0.32;;;13.40;52.00;;;;;;5055958;27;47646;-64
2022/12/24 16:26:33;;;;;;;0.90;0.30;;;13.40;51.90;;;;;;5055253;28;45307;-57
2022/12/24 16:28:58;;;;;;;0.17;0.17;;;13.40;51.90;;;;;;5063658;27;45463;-56
2022/12/24 16:31:35;;;;;;;0.40;0.20;;;13.40;51.90;;;;;;5061669;27;45638;-56
2022/12/24 16:34:01;;;;;;;0.20;0.20;;;13.40;51.90;;;;;;5052848;27;45558;-59
2022/12/24 16:36:27;;;;;;;0.88;0.40;;;13.40;51.90;;;;;;5037178;28;45249;-57
2022/12/24 16:44:21;;;;;;;0.98;0.38;;;13.40;51.90;;;;;;5052871;27;45860;-68
2022/12/24 16:46:47;;;;;;;0.32;0.20;;;13.50;52.00;;;;;;5068404;27;45225;-53
2022/12/24 16:49:16;;;;;;;0.20;0.20;;;13.40;51.90;;;;;;5047597;28;45083;-51
2022/12/24 16:51:42;;;;;;;0.45;0.20;;;13.50;52.00;;;;;;5049554;27;45193;-60
2022/12/24 16:54:10;;;;;;;0.60;0.30;;;13.40;52.00;;;;;;5077144;27;44978;-61
2022/12/24 16:56:36;;;;;;;0.30;0.22;;;13.40;51.90;;;;;;5052381;28;44928;-54
2022/12/24 16:59:01;;;;;;;1.20;0.20;;;13.40;51.90;;;;;;5050632;27;46144;-57
2022/12/24 17:01:27;;;;;;;0.80;0.55;;;13.40;51.90;;;;;;5062387;27;45274;-57
2022/12/24 17:03:52;;;;;;;0.25;0.20;;;13.40;51.90;;;;;;5072667;27;46097;-64
2022/12/24 17:06:18;;;;;;;0.50;0.30;;;13.40;51.90;;;;;;5076944;27;45235;-66
2022/12/24 17:08:43;;;;;;;0.60;0.20;;;13.40;52.00;;;;;;5052674;27;45287;-73
2022/12/24 17:11:09;;;;;;;0.20;0.20;;;13.40;52.00;;;;;;5057446;28;45307;-58
2022/12/24 17:13:34;;;;;;;1.45;0.25;;;13.40;52.00;;;;;;5073266;27;45826;-63
2022/12/24 17:16:01;;;;;;;1.15;0.40;;;13.40;52.00;;;;;;5058817;27;45657;-55
2022/12/24 17:18:27;;;;;;;0.40;0.20;;;13.40;52.00;;;;;;5072291;27;45657;-61